sensor_id;sensor_type;location;lat;lon;timestamp;P1;P2;P0
70243;PMS7003;57634;51.136;17.024;2023-05-07T00:02:01;3;3;2
70243;PMS7003;57634;51.136;17.024;2023-05-07T00:05:04;2;2;1
70243;PMS7003;57634;51.136;17.024;2023-05-07T00:08:07;2;2;1
70243;PMS7003;57634;51.136;17.024;2023-05-07T00:11:08;2;2;1
70243;PMS7003;57634;51.136;17.024;2023-05-07T00:14:09;2;2;2
70243;PMS7003;57634;51.136;17.024;2023-05-07T00:17:10;3;2;1
70243;PMS7003;57634;51.136;17.024;2023-05-07T00:20:38;3;2;1
70243;PMS7003;57634;51.136;17.024;2023-05-07T00:23:40;2;2;1
70243;PMS7003;57634;51.136;17.024;2023-05-07T00:26:41;2;2;2
70243;PMS7003;57634;51.136;17.024;2023-05-07T00:29:42;3;2;1
70243;PMS7003;57634;51.136;17.024;2023-05-07T00:32:44;2;2;1
70243;PMS7003;57634;51.136;17.024;2023-05-07T00:35:51;1;1;1
70243;PMS7003;57634;51.136;17.024;2023-05-07T00:38:54;2;2;2
70243;PMS7003;57634;51.136;17.024;2023-05-07T00:41:57;2;2;1
70243;PMS7003;57634;51.136;17.024;2023-05-07T00:44:58;2;2;1
70243;PMS7003;57634;51.136;17.024;2023-05-07T00:48:00;2;2;1
70243;PMS7003;57634;51.136;17.024;2023-05-07T00:51:03;2;2;2
70243;PMS7003;57634;51.136;17.024;2023-05-07T00:54:04;1;1;1
70243;PMS7003;57634;51.136;17.024;2023-05-07T00:57:36;0;0;0
70243;PMS7003;57634;51.136;17.024;2023-05-07T01:00:38;2;2;1
70243;PMS7003;57634;51.136;17.024;2023-05-07T01:03:40;1;0;0
70243;PMS7003;57634;51.136;17.024;2023-05-07T01:06:41;3;3;2
70243;PMS7003;57634;51.136;17.024;2023-05-07T01:09:43;1;1;1
70243;PMS7003;57634;51.136;17.024;2023-05-07T01:12:45;3;3;2
70243;PMS7003;57634;51.136;17.024;2023-05-07T01:15:48;2;2;1
70243;PMS7003;57634;51.136;17.024;2023-05-07T01:18:49;3;3;2
70243;PMS7003;57634;51.136;17.024;2023-05-07T01:21:51;2;2;2
70243;PMS7003;57634;51.136;17.024;2023-05-07T01:25:02;4;3;3
70243;PMS7003;57634;51.136;17.024;2023-05-07T01:28:33;3;3;2
70243;PMS7003;57634;51.136;17.024;2023-05-07T01:31:35;2;2;2
70243;PMS7003;57634;51.136;17.024;2023-05-07T01:34:37;3;3;2
70243;PMS7003;57634;51.136;17.024;2023-05-07T01:37:40;2;2;2
70243;PMS7003;57634;51.136;17.024;2023-05-07T01:40:42;3;2;2
70243;PMS7003;57634;51.136;17.024;2023-05-07T01:43:44;3;3;2
70243;PMS7003;57634;51.136;17.024;2023-05-07T01:46:46;2;2;2
70243;PMS7003;57634;51.136;17.024;2023-05-07T01:49:48;3;2;1
70243;PMS7003;57634;51.136;17.024;2023-05-07T01:52:50;4;3;2
70243;PMS7003;57634;51.136;17.024;2023-05-07T01:55:51;2;2;2
70243;PMS7003;57634;51.136;17.024;2023-05-07T01:58:53;4;3;1
70243;PMS7003;57634;51.136;17.024;2023-05-07T02:01:54;3;2;2
70243;PMS7003;57634;51.136;17.024;2023-05-07T02:04:55;2;2;2
70243;PMS7003;57634;51.136;17.024;2023-05-07T02:08:25;4;3;2
70243;PMS7003;57634;51.136;17.024;2023-05-07T02:11:26;2;2;2
70243;PMS7003;57634;51.136;17.024;2023-05-07T02:14:27;2;2;2
70243;PMS7003;57634;51.136;17.024;2023-05-07T02:17:29;3;3;2
70243;PMS7003;57634;51.136;17.024;2023-05-07T02:20:33;2;2;2
70243;PMS7003;57634;51.136;17.024;2023-05-07T02:23:34;4;2;2
70243;PMS7003;57634;51.136;17.024;2023-05-07T02:26:36;2;2;2
70243;PMS7003;57634;51.136;17.024;2023-05-07T02:29:37;4;3;2
70243;PMS7003;57634;51.136;17.024;2023-05-07T02:32:38;2;2;2
70243;PMS7003;57634;51.136;17.024;2023-05-07T02:35:40;2;2;2
70243;PMS7003;57634;51.136;17.024;2023-05-07T02:38:41;3;3;2
70243;PMS7003;57634;51.136;17.024;2023-05-07T02:41:43;4;4;2
70243;PMS7003;57634;51.136;17.024;2023-05-07T02:44:44;3;2;2
70243;PMS7003;57634;51.136;17.024;2023-05-07T02:47:45;2;2;2
70243;PMS7003;57634;51.136;17.024;2023-05-07T02:51:13;1;1;0
70243;PMS7003;57634;51.136;17.024;2023-05-07T02:54:14;2;2;2
70243;PMS7003;57634;51.136;17.024;2023-05-07T02:57:15;3;3;2
70243;PMS7003;57634;51.136;17.024;2023-05-07T03:00:17;3;3;2
70243;PMS7003;57634;51.136;17.024;2023-05-07T03:03:20;5;3;2
70243;PMS7003;57634;51.136;17.024;2023-05-07T03:06:21;6;5;2
70243;PMS7003;57634;51.136;17.024;2023-05-07T03:09:23;2;2;2
70243;PMS7003;57634;51.136;17.024;2023-05-07T03:12:24;3;2;2
70243;PMS7003;57634;51.136;17.024;2023-05-07T03:15:25;4;2;2
70243;PMS7003;57634;51.136;17.024;2023-05-07T03:18:27;3;2;2
70243;PMS7003;57634;51.136;17.024;2023-05-07T03:21:28;4;3;2
70243;PMS7003;57634;51.136;17.024;2023-05-07T03:24:34;5;3;2
70243;PMS7003;57634;51.136;17.024;2023-05-07T03:27:35;2;2;2
70243;PMS7003;57634;51.136;17.024;2023-05-07T03:31:05;2;2;2
70243;PMS7003;57634;51.136;17.024;2023-05-07T03:34:07;2;2;2
70243;PMS7003;57634;51.136;17.024;2023-05-07T03:37:08;3;2;2
70243;PMS7003;57634;51.136;17.024;2023-05-07T03:40:10;2;2;2
70243;PMS7003;57634;51.136;17.024;2023-05-07T03:43:13;2;2;1
70243;PMS7003;57634;51.136;17.024;2023-05-07T03:46:14;2;2;1
70243;PMS7003;57634;51.136;17.024;2023-05-07T03:49:15;2;2;2
70243;PMS7003;57634;51.136;17.024;2023-05-07T03:52:16;2;2;1
70243;PMS7003;57634;51.136;17.024;2023-05-07T03:55:26;2;1;1
70243;PMS7003;57634;51.136;17.024;2023-05-07T03:58:27;2;1;0
70243;PMS7003;57634;51.136;17.024;2023-05-07T04:01:28;2;2;1
70243;PMS7003;57634;51.136;17.024;2023-05-07T04:04:30;2;2;1
70243;PMS7003;57634;51.136;17.024;2023-05-07T04:08:00;1;1;1
70243;PMS7003;57634;51.136;17.024;2023-05-07T04:11:02;2;2;1
70243;PMS7003;57634;51.136;17.024;2023-05-07T04:14:03;2;2;1
70243;PMS7003;57634;51.136;17.024;2023-05-07T04:17:05;3;2;2
70243;PMS7003;57634;51.136;17.024;2023-05-07T04:20:10;5;5;3
70243;PMS7003;57634;51.136;17.024;2023-05-07T04:23:15;4;4;2
70243;PMS7003;57634;51.136;17.024;2023-05-07T04:26:16;4;3;2
70243;PMS7003;57634;51.136;17.024;2023-05-07T04:29:18;7;6;3
70243;PMS7003;57634;51.136;17.024;2023-05-07T04:32:19;4;4;2
70243;PMS7003;57634;51.136;17.024;2023-05-07T04:35:21;5;5;2
70243;PMS7003;57634;51.136;17.024;2023-05-07T04:38:22;4;4;3
70243;PMS7003;57634;51.136;17.024;2023-05-07T04:41:26;3;3;2
70243;PMS7003;57634;51.136;17.024;2023-05-07T04:44:54;6;5;2
70243;PMS7003;57634;51.136;17.024;2023-05-07T04:47:55;5;5;3
70243;PMS7003;57634;51.136;17.024;2023-05-07T04:50:56;3;3;2
70243;PMS7003;57634;51.136;17.024;2023-05-07T04:53:57;5;5;3
70243;PMS7003;57634;51.136;17.024;2023-05-07T04:56:59;5;3;2
70243;PMS7003;57634;51.136;17.024;2023-05-07T05:00:00;3;3;3
70243;PMS7003;57634;51.136;17.024;2023-05-07T05:03:02;3;3;3
70243;PMS7003;57634;51.136;17.024;2023-05-07T05:06:03;4;4;3
70243;PMS7003;57634;51.136;17.024;2023-05-07T05:09:06;3;3;1
70243;PMS7003;57634;51.136;17.024;2023-05-07T05:12:08;2;2;2
70243;PMS7003;57634;51.136;17.024;2023-05-07T05:15:11;3;3;2
70243;PMS7003;57634;51.136;17.024;2023-05-07T05:18:13;4;3;2
70243;PMS7003;57634;51.136;17.024;2023-05-07T05:21:14;3;3;2
70243;PMS7003;57634;51.136;17.024;2023-05-07T05:24:15;5;2;2
70243;PMS7003;57634;51.136;17.024;2023-05-07T05:27:43;3;3;3
70243;PMS7003;57634;51.136;17.024;2023-05-07T05:30:44;3;3;2
70243;PMS7003;57634;51.136;17.024;2023-05-07T05:33:45;4;4;3
70243;PMS7003;57634;51.136;17.024;2023-05-07T05:36:47;3;3;2
70243;PMS7003;57634;51.136;17.024;2023-05-07T05:39:48;3;3;2
70243;PMS7003;57634;51.136;17.024;2023-05-07T05:42:49;3;3;2
70243;PMS7003;57634;51.136;17.024;2023-05-07T05:45:51;5;3;2
70243;PMS7003;57634;51.136;17.024;2023-05-07T05:48:52;3;2;2
70243;PMS7003;57634;51.136;17.024;2023-05-07T05:51:53;2;2;2
70243;PMS7003;57634;51.136;17.024;2023-05-07T05:54:55;3;3;2
70243;PMS7003;57634;51.136;17.024;2023-05-07T05:57:56;2;2;2
70243;PMS7003;57634;51.136;17.024;2023-05-07T06:00:57;3;3;2
70243;PMS7003;57634;51.136;17.024;2023-05-07T06:03:59;3;3;2
70243;PMS7003;57634;51.136;17.024;2023-05-07T06:07:00;4;4;3
70243;PMS7003;57634;51.136;17.024;2023-05-07T06:10:31;3;3;2
70243;PMS7003;57634;51.136;17.024;2023-05-07T06:13:33;3;3;2
70243;PMS7003;57634;51.136;17.024;2023-05-07T06:16:34;3;3;2
70243;PMS7003;57634;51.136;17.024;2023-05-07T06:19:38;2;2;2
70243;PMS7003;57634;51.136;17.024;2023-05-07T06:22:39;3;3;2
70243;PMS7003;57634;51.136;17.024;2023-05-07T06:25:40;3;3;2
70243;PMS7003;57634;51.136;17.024;2023-05-07T06:28:45;2;2;2
70243;PMS7003;57634;51.136;17.024;2023-05-07T06:31:46;4;4;2
70243;PMS7003;57634;51.136;17.024;2023-05-07T06:34:47;10;10;7
70243;PMS7003;57634;51.136;17.024;2023-05-07T06:37:48;6;5;3
70243;PMS7003;57634;51.136;17.024;2023-05-07T06:40:50;3;2;1
70243;PMS7003;57634;51.136;17.024;2023-05-07T06:43:52;1;1;1
70243;PMS7003;57634;51.136;17.024;2023-05-07T06:46:53;2;2;2
70243;PMS7003;57634;51.136;17.024;2023-05-07T06:49:54;3;3;2
70243;PMS7003;57634;51.136;17.024;2023-05-07T06:53:22;3;3;2
70243;PMS7003;57634;51.136;17.024;2023-05-07T06:56:23;3;3;1
70243;PMS7003;57634;51.136;17.024;2023-05-07T06:59:25;3;3;2
70243;PMS7003;57634;51.136;17.024;2023-05-07T07:02:26;3;3;1
70243;PMS7003;57634;51.136;17.024;2023-05-07T07:05:27;2;2;1
70243;PMS7003;57634;51.136;17.024;2023-05-07T07:08:29;3;3;1
70243;PMS7003;57634;51.136;17.024;2023-05-07T07:11:30;2;2;1
70243;PMS7003;57634;51.136;17.024;2023-05-07T07:14:32;2;2;1
70243;PMS7003;57634;51.136;17.024;2023-05-07T07:17:33;2;2;1
70243;PMS7003;57634;51.136;17.024;2023-05-07T07:20:35;1;1;0
70243;PMS7003;57634;51.136;17.024;2023-05-07T07:23:36;1;1;0
70243;PMS7003;57634;51.136;17.024;2023-05-07T07:26:41;0;0;0
70243;PMS7003;57634;51.136;17.024;2023-05-07T07:29:43;1;1;1
70243;PMS7003;57634;51.136;17.024;2023-05-07T07:33:13;2;2;1
70243;PMS7003;57634;51.136;17.024;2023-05-07T07:36:15;1;1;1
70243;PMS7003;57634;51.136;17.024;2023-05-07T07:39:17;3;2;1
70243;PMS7003;57634;51.136;17.024;2023-05-07T07:42:18;1;1;1
70243;PMS7003;57634;51.136;17.024;2023-05-07T07:45:20;3;3;3
70243;PMS7003;57634;51.136;17.024;2023-05-07T07:48:22;4;3;2
70243;PMS7003;57634;51.136;17.024;2023-05-07T07:51:23;7;5;4
70243;PMS7003;57634;51.136;17.024;2023-05-07T07:54:24;3;3;2
70243;PMS7003;57634;51.136;17.024;2023-05-07T07:57:25;3;3;2
70243;PMS7003;57634;51.136;17.024;2023-05-07T08:00:26;5;5;4
70243;PMS7003;57634;51.136;17.024;2023-05-07T08:03:27;5;4;2
70243;PMS7003;57634;51.136;17.024;2023-05-07T08:06:32;5;4;2
70243;PMS7003;57634;51.136;17.024;2023-05-07T08:09:33;4;2;1
70243;PMS7003;57634;51.136;17.024;2023-05-07T08:12:34;4;3;2
70243;PMS7003;57634;51.136;17.024;2023-05-07T08:16:02;5;5;4
70243;PMS7003;57634;51.136;17.024;2023-05-07T08:19:03;4;4;3
70243;PMS7003;57634;51.136;17.024;2023-05-07T08:24:59;5;4;2
70243;PMS7003;57634;51.136;17.024;2023-05-07T08:28:04;3;3;2
70243;PMS7003;57634;51.136;17.024;2023-05-07T08:31:05;5;5;3
70243;PMS7003;57634;51.136;17.024;2023-05-07T08:34:07;2;2;1
70243;PMS7003;57634;51.136;17.024;2023-05-07T08:37:08;4;3;2
70243;PMS7003;57634;51.136;17.024;2023-05-07T08:40:10;5;5;2
70243;PMS7003;57634;51.136;17.024;2023-05-07T08:43:14;6;6;4
70243;PMS7003;57634;51.136;17.024;2023-05-07T08:46:18;4;4;3
70243;PMS7003;57634;51.136;17.024;2023-05-07T08:49:21;3;3;2
70243;PMS7003;57634;51.136;17.024;2023-05-07T08:52:22;5;4;3
70243;PMS7003;57634;51.136;17.024;2023-05-07T08:55:23;7;7;5
70243;PMS7003;57634;51.136;17.024;2023-05-07T08:58:54;4;4;3
70243;PMS7003;57634;51.136;17.024;2023-05-07T09:01:59;6;6;4
70243;PMS7003;57634;51.136;17.024;2023-05-07T09:05:00;5;4;3
70243;PMS7003;57634;51.136;17.024;2023-05-07T09:08:02;4;4;3
70243;PMS7003;57634;51.136;17.024;2023-05-07T09:11:07;5;4;4
70243;PMS7003;57634;51.136;17.024;2023-05-07T09:14:08;7;7;4
70243;PMS7003;57634;51.136;17.024;2023-05-07T09:17:09;6;4;3
70243;PMS7003;57634;51.136;17.024;2023-05-07T09:20:10;6;6;4
70243;PMS7003;57634;51.136;17.024;2023-05-07T09:23:12;5;5;3
70243;PMS7003;57634;51.136;17.024;2023-05-07T09:26:14;6;4;3
70243;PMS7003;57634;51.136;17.024;2023-05-07T09:29:18;6;4;3
70243;PMS7003;57634;51.136;17.024;2023-05-07T09:32:20;5;4;3
70243;PMS7003;57634;51.136;17.024;2023-05-07T09:35:52;5;4;2
70243;PMS7003;57634;51.136;17.024;2023-05-07T09:38:54;5;4;3
70243;PMS7003;57634;51.136;17.024;2023-05-07T09:41:57;5;5;4
70243;PMS7003;57634;51.136;17.024;2023-05-07T09:48:26;6;4;4
70243;PMS7003;57634;51.136;17.024;2023-05-07T09:51:30;4;3;2
70243;PMS7003;57634;51.136;17.024;2023-05-07T09:55:05;6;6;4
70243;PMS7003;57634;51.136;17.024;2023-05-07T09:58:13;7;6;4
70243;PMS7003;57634;51.136;17.024;2023-05-07T10:01:17;6;4;3
70243;PMS7003;57634;51.136;17.024;2023-05-07T10:04:22;5;5;4
70243;PMS7003;57634;51.136;17.024;2023-05-07T10:07:24;5;4;4
70243;PMS7003;57634;51.136;17.024;2023-05-07T10:10:26;4;4;3
70243;PMS7003;57634;51.136;17.024;2023-05-07T10:13:29;12;11;8
70243;PMS7003;57634;51.136;17.024;2023-05-07T10:16:31;4;4;3
70243;PMS7003;57634;51.136;17.024;2023-05-07T10:20:08;6;4;3
70243;PMS7003;57634;51.136;17.024;2023-05-07T10:23:12;4;4;3
70243;PMS7003;57634;51.136;17.024;2023-05-07T10:26:17;4;4;3
70243;PMS7003;57634;51.136;17.024;2023-05-07T10:32:37;4;3;2
70243;PMS7003;57634;51.136;17.024;2023-05-07T10:35:41;4;4;3
70243;PMS7003;57634;51.136;17.024;2023-05-07T10:42:34;4;4;3
70243;PMS7003;57634;51.136;17.024;2023-05-07T10:45:36;3;3;2
70243;PMS7003;57634;51.136;17.024;2023-05-07T10:52:10;5;4;3
70243;PMS7003;57634;51.136;17.024;2023-05-07T11:08:24;4;4;2
70243;PMS7003;57634;51.136;17.024;2023-05-07T11:18:14;5;5;3
70243;PMS7003;57634;51.136;17.024;2023-05-07T11:24:37;17;16;10
70243;PMS7003;57634;51.136;17.024;2023-05-07T11:27:43;5;5;4
70243;PMS7003;57634;51.136;17.024;2023-05-07T11:30:45;5;5;4
70243;PMS7003;57634;51.136;17.024;2023-05-07T11:33:50;3;3;2
70243;PMS7003;57634;51.136;17.024;2023-05-07T11:36:52;3;3;2
70243;PMS7003;57634;51.136;17.024;2023-05-07T11:40:22;4;3;2
70243;PMS7003;57634;51.136;17.024;2023-05-07T11:43:24;3;3;2
70243;PMS7003;57634;51.136;17.024;2023-05-07T11:46:25;3;2;2
70243;PMS7003;57634;51.136;17.024;2023-05-07T11:49:28;4;4;3
70243;PMS7003;57634;51.136;17.024;2023-05-07T11:52:30;4;3;2
70243;PMS7003;57634;51.136;17.024;2023-05-07T11:55:31;7;7;6
70243;PMS7003;57634;51.136;17.024;2023-05-07T11:58:32;3;3;2
70243;PMS7003;57634;51.136;17.024;2023-05-07T12:04:56;4;4;3
70243;PMS7003;57634;51.136;17.024;2023-05-07T12:08:26;4;4;3
70243;PMS7003;57634;51.136;17.024;2023-05-07T12:11:27;4;4;3
70243;PMS7003;57634;51.136;17.024;2023-05-07T12:14:28;6;6;3
70243;PMS7003;57634;51.136;17.024;2023-05-07T12:17:30;5;5;4
70243;PMS7003;57634;51.136;17.024;2023-05-07T12:20:31;5;5;3
70243;PMS7003;57634;51.136;17.024;2023-05-07T12:23:35;6;5;4
70243;PMS7003;57634;51.136;17.024;2023-05-07T12:26:38;6;6;5
70243;PMS7003;57634;51.136;17.024;2023-05-07T12:29:51;8;7;6
70243;PMS7003;57634;51.136;17.024;2023-05-07T12:32:52;6;5;4
70243;PMS7003;57634;51.136;17.024;2023-05-07T12:42:52;6;6;4
70243;PMS7003;57634;51.136;17.024;2023-05-07T12:45:57;4;4;3
70243;PMS7003;57634;51.136;17.024;2023-05-07T12:49:02;6;6;4
70243;PMS7003;57634;51.136;17.024;2023-05-07T12:52:06;4;4;3
70243;PMS7003;57634;51.136;17.024;2023-05-07T12:55:08;7;6;5
70243;PMS7003;57634;51.136;17.024;2023-05-07T12:58:36;4;4;3
70243;PMS7003;57634;51.136;17.024;2023-05-07T13:01:38;6;6;5
70243;PMS7003;57634;51.136;17.024;2023-05-07T13:04:39;7;6;4
70243;PMS7003;57634;51.136;17.024;2023-05-07T13:07:40;6;6;4
70243;PMS7003;57634;51.136;17.024;2023-05-07T13:10:46;7;6;5
70243;PMS7003;57634;51.136;17.024;2023-05-07T13:13:48;6;6;4
70243;PMS7003;57634;51.136;17.024;2023-05-07T13:16:49;7;7;5
70243;PMS7003;57634;51.136;17.024;2023-05-07T13:19:50;10;10;7
70243;PMS7003;57634;51.136;17.024;2023-05-07T13:22:51;8;8;5
70243;PMS7003;57634;51.136;17.024;2023-05-07T13:25:53;7;7;5
70243;PMS7003;57634;51.136;17.024;2023-05-07T13:28:57;7;7;5
70243;PMS7003;57634;51.136;17.024;2023-05-07T13:31:59;8;7;4
70243;PMS7003;57634;51.136;17.024;2023-05-07T13:35:01;7;7;5
70243;PMS7003;57634;51.136;17.024;2023-05-07T13:38:28;5;5;4
70243;PMS7003;57634;51.136;17.024;2023-05-07T13:41:29;7;6;5
70243;PMS7003;57634;51.136;17.024;2023-05-07T13:44:31;4;4;3
70243;PMS7003;57634;51.136;17.024;2023-05-07T13:47:32;5;5;4
70243;PMS7003;57634;51.136;17.024;2023-05-07T13:50:33;5;5;4
70243;PMS7003;57634;51.136;17.024;2023-05-07T13:53:35;7;7;5
70243;PMS7003;57634;51.136;17.024;2023-05-07T13:56:36;6;6;4
70243;PMS7003;57634;51.136;17.024;2023-05-07T13:59:37;4;4;4
70243;PMS7003;57634;51.136;17.024;2023-05-07T14:02:39;6;4;3
70243;PMS7003;57634;51.136;17.024;2023-05-07T14:05:41;6;6;4
70243;PMS7003;57634;51.136;17.024;2023-05-07T14:08:43;4;4;3
70243;PMS7003;57634;51.136;17.024;2023-05-07T14:11:44;3;3;3
70243;PMS7003;57634;51.136;17.024;2023-05-07T14:14:47;10;10;7
70243;PMS7003;57634;51.136;17.024;2023-05-07T14:17:50;6;5;4
70243;PMS7003;57634;51.136;17.024;2023-05-07T14:21:17;5;4;3
70243;PMS7003;57634;51.136;17.024;2023-05-07T14:24:18;5;5;4
70243;PMS7003;57634;51.136;17.024;2023-05-07T14:27:19;5;5;3
70243;PMS7003;57634;51.136;17.024;2023-05-07T14:30:21;4;4;2
70243;PMS7003;57634;51.136;17.024;2023-05-07T14:33:25;4;4;3
70243;PMS7003;57634;51.136;17.024;2023-05-07T14:36:26;2;0;0
70243;PMS7003;57634;51.136;17.024;2023-05-07T14:39:28;4;4;3
70243;PMS7003;57634;51.136;17.024;2023-05-07T14:42:30;4;4;3
70243;PMS7003;57634;51.136;17.024;2023-05-07T14:45:31;5;4;3
70243;PMS7003;57634;51.136;17.024;2023-05-07T14:48:32;5;5;3
70243;PMS7003;57634;51.136;17.024;2023-05-07T14:51:33;7;6;5
70243;PMS7003;57634;51.136;17.024;2023-05-07T14:54:37;8;7;6
70243;PMS7003;57634;51.136;17.024;2023-05-07T14:57:39;4;4;3
70243;PMS7003;57634;51.136;17.024;2023-05-07T15:01:09;4;4;2
70243;PMS7003;57634;51.136;17.024;2023-05-07T15:04:10;4;4;2
70243;PMS7003;57634;51.136;17.024;2023-05-07T15:07:12;4;4;3
70243;PMS7003;57634;51.136;17.024;2023-05-07T15:10:17;6;5;3
70243;PMS7003;57634;51.136;17.024;2023-05-07T15:13:18;5;4;3
70243;PMS7003;57634;51.136;17.024;2023-05-07T15:16:19;6;5;4
70243;PMS7003;57634;51.136;17.024;2023-05-07T15:19:21;4;3;2
70243;PMS7003;57634;51.136;17.024;2023-05-07T15:22:29;5;4;2
70243;PMS7003;57634;51.136;17.024;2023-05-07T15:25:31;4;4;3
70243;PMS7003;57634;51.136;17.024;2023-05-07T15:28:34;5;5;4
70243;PMS7003;57634;51.136;17.024;2023-05-07T15:31:36;4;4;3
70243;PMS7003;57634;51.136;17.024;2023-05-07T15:35:06;6;5;4
70243;PMS7003;57634;51.136;17.024;2023-05-07T15:38:08;4;3;2
70243;PMS7003;57634;51.136;17.024;2023-05-07T15:41:09;6;5;3
70243;PMS7003;57634;51.136;17.024;2023-05-07T15:44:10;4;4;3
70243;PMS7003;57634;51.136;17.024;2023-05-07T15:47:12;4;4;3
70243;PMS7003;57634;51.136;17.024;2023-05-07T15:50:15;4;4;3
70243;PMS7003;57634;51.136;17.024;2023-05-07T15:53:18;7;6;5
70243;PMS7003;57634;51.136;17.024;2023-05-07T15:56:19;7;7;4
70243;PMS7003;57634;51.136;17.024;2023-05-07T15:59:21;6;6;4
70243;PMS7003;57634;51.136;17.024;2023-05-07T16:02:22;6;4;3
70243;PMS7003;57634;51.136;17.024;2023-05-07T16:05:23;5;5;3
70243;PMS7003;57634;51.136;17.024;2023-05-07T16:08:25;5;5;3
70243;PMS7003;57634;51.136;17.024;2023-05-07T16:11:26;4;4;3
70243;PMS7003;57634;51.136;17.024;2023-05-07T16:14:56;4;4;3
70243;PMS7003;57634;51.136;17.024;2023-05-07T16:17:58;7;7;5
70243;PMS7003;57634;51.136;17.024;2023-05-07T16:20:59;7;7;5
70243;PMS7003;57634;51.136;17.024;2023-05-07T16:24:01;6;6;4
70243;PMS7003;57634;51.136;17.024;2023-05-07T16:27:02;6;5;4
70243;PMS7003;57634;51.136;17.024;2023-05-07T16:30:04;7;7;5
70243;PMS7003;57634;51.136;17.024;2023-05-07T16:33:06;7;6;5
70243;PMS7003;57634;51.136;17.024;2023-05-07T16:36:10;5;4;3
70243;PMS7003;57634;51.136;17.024;2023-05-07T16:39:14;6;5;3
70243;PMS7003;57634;51.136;17.024;2023-05-07T16:42:19;6;6;4
70243;PMS7003;57634;51.136;17.024;2023-05-07T16:45:20;6;6;3
70243;PMS7003;57634;51.136;17.024;2023-05-07T16:48:22;6;5;4
70243;PMS7003;57634;51.136;17.024;2023-05-07T16:51:51;6;6;4
70243;PMS7003;57634;51.136;17.024;2023-05-07T16:54:53;7;7;5
70243;PMS7003;57634;51.136;17.024;2023-05-07T16:58:00;7;7;4
70243;PMS7003;57634;51.136;17.024;2023-05-07T17:01:01;6;6;4
70243;PMS7003;57634;51.136;17.024;2023-05-07T17:04:03;6;6;4
70243;PMS7003;57634;51.136;17.024;2023-05-07T17:07:04;7;6;4
70243;PMS7003;57634;51.136;17.024;2023-05-07T17:10:06;5;5;4
70243;PMS7003;57634;51.136;17.024;2023-05-07T17:13:11;6;5;4
70243;PMS7003;57634;51.136;17.024;2023-05-07T17:16:13;4;4;3
70243;PMS7003;57634;51.136;17.024;2023-05-07T17:19:14;6;6;4
70243;PMS7003;57634;51.136;17.024;2023-05-07T17:22:15;6;4;3
70243;PMS7003;57634;51.136;17.024;2023-05-07T17:25:17;6;5;3
70243;PMS7003;57634;51.136;17.024;2023-05-07T17:28:45;4;3;3
70243;PMS7003;57634;51.136;17.024;2023-05-07T17:31:47;4;4;3
70243;PMS7003;57634;51.136;17.024;2023-05-07T17:34:48;5;5;3
70243;PMS7003;57634;51.136;17.024;2023-05-07T17:37:50;5;4;3
70243;PMS7003;57634;51.136;17.024;2023-05-07T17:40:54;3;3;3
70243;PMS7003;57634;51.136;17.024;2023-05-07T17:43:55;5;5;3
70243;PMS7003;57634;51.136;17.024;2023-05-07T17:46:57;7;7;4
70243;PMS7003;57634;51.136;17.024;2023-05-07T17:49:58;5;5;4
70243;PMS7003;57634;51.136;17.024;2023-05-07T17:52:59;5;5;4
70243;PMS7003;57634;51.136;17.024;2023-05-07T17:56:01;5;5;3
70243;PMS7003;57634;51.136;17.024;2023-05-07T17:59:02;7;7;5
70243;PMS7003;57634;51.136;17.024;2023-05-07T18:02:04;7;6;5
70243;PMS7003;57634;51.136;17.024;2023-05-07T18:05:05;6;6;4
70243;PMS7003;57634;51.136;17.024;2023-05-07T18:08:08;7;6;4
70243;PMS7003;57634;51.136;17.024;2023-05-07T18:11:35;6;6;4
70243;PMS7003;57634;51.136;17.024;2023-05-07T18:14:37;7;5;4
70243;PMS7003;57634;51.136;17.024;2023-05-07T18:17:38;10;9;7
70243;PMS7003;57634;51.136;17.024;2023-05-07T18:20:40;8;8;6
70243;PMS7003;57634;51.136;17.024;2023-05-07T18:23:41;9;6;5
70243;PMS7003;57634;51.136;17.024;2023-05-07T18:26:42;7;6;5
70243;PMS7003;57634;51.136;17.024;2023-05-07T18:29:46;7;7;5
70243;PMS7003;57634;51.136;17.024;2023-05-07T18:32:50;7;6;4
70243;PMS7003;57634;51.136;17.024;2023-05-07T18:35:53;5;4;3
70243;PMS7003;57634;51.136;17.024;2023-05-07T18:38:54;7;6;4
70243;PMS7003;57634;51.136;17.024;2023-05-07T18:41:55;5;4;3
70243;PMS7003;57634;51.136;17.024;2023-05-07T18:44:58;6;6;4
70243;PMS7003;57634;51.136;17.024;2023-05-07T18:48:00;7;7;5
70243;PMS7003;57634;51.136;17.024;2023-05-07T18:51:27;5;5;3
70243;PMS7003;57634;51.136;17.024;2023-05-07T18:54:28;5;5;4
70243;PMS7003;57634;51.136;17.024;2023-05-07T18:57:29;6;6;4
70243;PMS7003;57634;51.136;17.024;2023-05-07T19:00:30;6;5;3
70243;PMS7003;57634;51.136;17.024;2023-05-07T19:03:34;7;6;4
70243;PMS7003;57634;51.136;17.024;2023-05-07T19:06:36;5;5;4
70243;PMS7003;57634;51.136;17.024;2023-05-07T19:09:37;6;5;3
70243;PMS7003;57634;51.136;17.024;2023-05-07T19:12:39;6;5;4
70243;PMS7003;57634;51.136;17.024;2023-05-07T19:15:40;6;5;3
70243;PMS7003;57634;51.136;17.024;2023-05-07T19:18:42;6;5;4
70243;PMS7003;57634;51.136;17.024;2023-05-07T19:21:46;7;6;5
70243;PMS7003;57634;51.136;17.024;2023-05-07T19:24:48;7;6;4
70243;PMS7003;57634;51.136;17.024;2023-05-07T19:27:50;6;6;4
70243;PMS7003;57634;51.136;17.024;2023-05-07T19:31:19;5;4;3
70243;PMS7003;57634;51.136;17.024;2023-05-07T19:34:27;5;5;5
70243;PMS7003;57634;51.136;17.024;2023-05-07T19:37:30;5;5;3
70243;PMS7003;57634;51.136;17.024;2023-05-07T19:40:31;5;4;3
70243;PMS7003;57634;51.136;17.024;2023-05-07T19:43:33;9;9;7
70243;PMS7003;57634;51.136;17.024;2023-05-07T19:46:39;8;8;5
70243;PMS7003;57634;51.136;17.024;2023-05-07T19:49:45;6;6;4
70243;PMS7003;57634;51.136;17.024;2023-05-07T19:52:47;7;6;4
70243;PMS7003;57634;51.136;17.024;2023-05-07T19:56:00;6;6;4
70243;PMS7003;57634;51.136;17.024;2023-05-07T19:59:28;7;6;5
70243;PMS7003;57634;51.136;17.024;2023-05-07T20:02:30;7;6;5
70243;PMS7003;57634;51.136;17.024;2023-05-07T20:05:31;5;4;2
70243;PMS7003;57634;51.136;17.024;2023-05-07T20:08:35;6;6;3
70243;PMS7003;57634;51.136;17.024;2023-05-07T20:11:37;6;6;4
70243;PMS7003;57634;51.136;17.024;2023-05-07T20:14:39;7;6;5
70243;PMS7003;57634;51.136;17.024;2023-05-07T20:17:41;7;7;5
70243;PMS7003;57634;51.136;17.024;2023-05-07T20:20:47;6;6;4
70243;PMS7003;57634;51.136;17.024;2023-05-07T20:23:49;5;4;3
70243;PMS7003;57634;51.136;17.024;2023-05-07T20:26:51;6;5;3
70243;PMS7003;57634;51.136;17.024;2023-05-07T20:29:55;7;6;4
70243;PMS7003;57634;51.136;17.024;2023-05-07T20:32:57;6;6;4
70243;PMS7003;57634;51.136;17.024;2023-05-07T20:36:24;7;7;6
70243;PMS7003;57634;51.136;17.024;2023-05-07T20:39:26;7;6;5
70243;PMS7003;57634;51.136;17.024;2023-05-07T20:42:30;9;7;5
70243;PMS7003;57634;51.136;17.024;2023-05-07T20:45:31;6;5;3
70243;PMS7003;57634;51.136;17.024;2023-05-07T20:48:32;5;5;2
70243;PMS7003;57634;51.136;17.024;2023-05-07T20:51:34;6;5;4
70243;PMS7003;57634;51.136;17.024;2023-05-07T20:54:36;6;6;3
70243;PMS7003;57634;51.136;17.024;2023-05-07T20:57:40;7;6;4
70243;PMS7003;57634;51.136;17.024;2023-05-07T21:00:41;6;5;3
70243;PMS7003;57634;51.136;17.024;2023-05-07T21:03:43;6;6;4
70243;PMS7003;57634;51.136;17.024;2023-05-07T21:06:44;6;6;3
70243;PMS7003;57634;51.136;17.024;2023-05-07T21:09:45;3;3;2
70243;PMS7003;57634;51.136;17.024;2023-05-07T21:12:47;3;3;2